Time;durP1;ratioP1;P1;durP2;ratioP2;P2;SDS_P1;SDS_P2;PMS_P1;PMS_P2;Temp;Humidity;BMP_temperature;BMP_pressure;BME280_temperature;BME280_humidity;BME280_pressure;Samples;Min_cycle;Max_cycle;Signal;HPM_P1;HPM_P2
2023/07/13 00:02:42;;;;;;;;;;;;;;;16.52;100.00;101335.69;20697722;28;20440;-59
2023/07/13 00:13:04;;;;;;;;;;;;;;;16.48;100.00;101336.75;20702302;28;19944;-59
2023/07/13 00:23:25;;;;;;;;;;;;;;;16.40;100.00;101343.22;20727429;28;20288;-59
2023/07/13 00:33:47;;;;;;;;;;;;;;;16.33;100.00;101339.19;20713165;28;19925;-59
2023/07/13 00:44:13;;;;;;;;;;;;;;;16.27;100.00;101340.31;20711104;28;20269;-59
2023/07/13 00:54:39;;;;;;;;;;;;;;;16.21;100.00;101340.59;20725561;28;19936;-59
2023/07/13 01:05:01;;;;;;;;;;;;;;;16.16;100.00;101355.63;20729276;28;19929;-59
2023/07/13 01:15:40;;;;;;;;;;;;;;;16.19;100.00;101360.69;20730192;28;19952;-59
2023/07/13 01:26:01;;;;;;;;;;;;;;;16.16;97.28;101360.84;20725896;28;19926;-59
2023/07/13 01:36:23;;;;;;;;;;;;;;;16.04;98.49;101350.97;20726521;28;19921;-59
2023/07/13 01:46:44;;;;;;;;;;;;;;;16.01;99.07;101348.47;20737631;28;20298;-59
2023/07/13 01:57:06;;;;;;;;;;;;;;;15.98;99.54;101351.22;20714156;28;19922;-61
2023/07/13 02:07:28;;;;;;;;;;;;;;;15.89;100.00;101330.75;20711580;28;19952;-60
2023/07/13 02:17:50;;;;;;;;;;;;;;;15.90;100.00;101348.06;20709537;28;20413;-60
2023/07/13 02:28:11;;;;;;;;;;;;;;;16.01;97.76;101351.06;20733408;28;19921;-59
2023/07/13 02:38:34;;;;;;;;;;;;;;;15.99;99.36;101347.69;20706037;28;20535;-59
2023/07/13 02:48:56;;;;;;;;;;;;;;;15.99;94.09;101345.06;20734677;28;19921;-59
2023/07/13 02:59:17;;;;;;;;;;;;;;;16.04;100.00;101354.38;20705344;28;19928;-60
2023/07/13 03:09:39;;;;;;;;;;;;;;;16.08;95.39;101358.56;20732353;28;19926;-59
2023/07/13 03:20:01;;;;;;;;;;;;;;;16.13;94.35;101351.38;20691651;28;20350;-59
2023/07/13 03:30:23;;;;;;;;;;;;;;;16.15;95.43;101353.09;20702647;28;20016;-59
2023/07/13 03:40:44;;;;;;;;;;;;;;;16.14;98.06;101357.44;20693148;28;19925;-59
2023/07/13 03:51:06;;;;;;;;;;;;;;;16.15;94.09;101369.63;20729620;28;19925;-59
2023/07/13 04:01:27;;;;;;;;;;;;;;;16.18;94.91;101374.69;20701435;28;19948;-59
2023/07/13 04:11:49;;;;;;;;;;;;;;;16.19;93.07;101375.53;20701109;28;19979;-59
2023/07/13 04:22:10;;;;;;;;;;;;;;;16.24;94.39;101379.66;20696618;28;20001;-59
2023/07/13 04:32:32;;;;;;;;;;;;;;;16.32;94.46;101387.97;20727600;28;20415;-59
2023/07/13 04:42:54;;;;;;;;;;;;;;;16.43;93.17;101396.19;20707729;28;19929;-59
2023/07/13 04:53:15;;;;;;;;;;;;;;;16.45;97.97;101393.47;20684954;28;20306;-59
2023/07/13 05:03:37;;;;;;;;;;;;;;;16.48;93.76;101391.63;20723921;28;19936;-59
2023/07/13 05:13:58;;;;;;;;;;;;;;;16.58;93.91;101405.97;20700689;28;19947;-60
2023/07/13 05:24:20;;;;;;;;;;;;;;;16.63;92.58;101411.81;20710281;28;20280;-60
2023/07/13 05:34:46;;;;;;;;;;;;;;;16.69;93.12;101427.25;20708341;28;19932;-59
2023/07/13 05:45:08;;;;;;;;;;;;;;;16.80;91.58;101419.75;20710853;28;19922;-58
2023/07/13 05:55:29;;;;;;;;;;;;;;;16.87;92.53;101434.25;20717721;28;19922;-59
2023/07/13 06:05:50;;;;;;;;;;;;;;;16.98;91.55;101436.34;20698390;28;19952;-60
2023/07/13 06:16:13;;;;;;;;;;;;;;;17.15;90.04;101443.41;20712321;28;19921;-60
2023/07/13 06:26:34;;;;;;;;;;;;;;;17.27;88.79;101448.91;20702310;28;20295;-59
2023/07/13 06:36:56;;;;;;;;;;;;;;;17.47;90.41;101461.06;20700876;28;20682;-59
2023/07/13 06:47:17;;;;;;;;;;;;;;;17.62;87.84;101473.41;20706274;28;19952;-59
2023/07/13 06:57:38;;;;;;;;;;;;;;;17.82;88.46;101462.78;20732154;28;19921;-59
2023/07/13 07:08:00;;;;;;;;;;;;;;;18.04;86.83;101471.28;20699812;28;19930;-58
2023/07/13 07:18:21;;;;;;;;;;;;;;;18.26;86.39;101476.28;20731768;28;20446;-60
2023/07/13 07:28:43;;;;;;;;;;;;;;;18.49;86.66;101474.22;20704255;28;20024;-59
2023/07/13 07:39:11;;;;;;;;;;;;;;;18.68;85.55;101472.28;20700573;28;19925;-59
2023/07/13 07:49:32;;;;;;;;;;;;;;;18.85;84.03;101469.63;20716332;28;19922;-59
2023/07/13 07:59:54;;;;;;;;;;;;;;;19.07;83.95;101474.53;20714341;28;19925;-59
2023/07/13 08:10:18;;;;;;;;;;;;;;;19.27;83.85;101486.56;20726911;28;19927;-58
2023/07/13 08:20:40;;;;;;;;;;;;;;;19.42;80.73;101481.34;20700419;28;19948;-59
2023/07/13 08:31:03;;;;;;;;;;;;;;;19.67;80.76;101475.53;20696628;28;19925;-60
2023/07/13 08:41:24;;;;;;;;;;;;;;;19.89;79.69;101468.13;20723746;28;19971;-60
2023/07/13 08:51:55;;;;;;;;;;;;;;;20.13;78.58;101476.34;20729934;28;19921;-60
2023/07/13 09:02:22;;;;;;;;;;;;;;;20.49;75.16;101477.66;20705097;28;19921;-59
2023/07/13 09:12:47;;;;;;;;;;;;;;;20.71;75.98;101478.03;20711631;28;20388;-60
2023/07/13 09:23:12;;;;;;;;;;;;;;;20.86;73.99;101471.81;20711999;28;19922;-59
2023/07/13 09:33:34;;;;;;;;;;;;;;;20.87;74.92;101470.03;20712901;28;20137;-59
2023/07/13 09:44:16;;;;;;;;;;;;;;;20.82;74.64;101470.31;20710308;28;19925;-59
2023/07/13 09:54:38;;;;;;;;;;;;;;;21.26;73.85;101474.63;20710726;28;20391;-59
2023/07/13 10:05:01;;;;;;;;;;;;;;;21.29;70.97;101474.41;20737343;28;19936;-60
2023/07/13 10:15:24;;;;;;;;;;;;;;;21.50;70.42;101483.59;20709771;28;20367;-60
2023/07/13 10:25:47;;;;;;;;;;;;;;;21.80;71.42;101500.03;20709431;28;19925;-59
2023/07/13 10:36:22;;;;;;;;;;;;;;;21.84;72.63;101501.53;20734125;28;19943;-58
2023/07/13 10:46:44;;;;;;;;;;;;;;;21.33;72.07;101521.53;20715927;28;20295;-58
2023/07/13 10:57:12;;;;;;;;;;;;;;;20.82;70.66;101577.38;20723336;28;19921;-59
2023/07/13 11:07:53;;;;;;;;;;;;;;;19.42;74.14;101620.50;20706965;28;20352;-58
2023/07/13 11:18:19;;;;;;;;;;;;;;;18.29;82.16;101621.13;20701240;28;20008;-58
2023/07/13 11:28:42;;;;;;;;;;;;;;;17.88;85.69;101619.63;20730198;28;19921;-58
2023/07/13 11:39:12;;;;;;;;;;;;;;;17.73;86.59;101625.56;20715456;28;19930;-58
2023/07/13 11:49:41;;;;;;;;;;;;;;;17.65;85.89;101641.63;20703373;28;20296;-58
2023/07/13 12:00:09;;;;;;;;;;;;;;;18.10;88.64;101630.78;20682115;28;19928;-58
2023/07/13 12:10:32;;;;;;;;;;;;;;;18.86;84.09;101633.94;20713197;28;19921;-60
2023/07/13 12:20:55;;;;;;;;;;;;;;;19.05;81.69;101639.94;20700601;28;19921;-59
2023/07/13 12:31:26;;;;;;;;;;;;;;;19.28;79.82;101644.00;20700901;28;19925;-58
2023/07/13 12:41:49;;;;;;;;;;;;;;;19.79;79.16;101648.22;20687643;28;20312;-58
2023/07/13 12:52:16;;;;;;;;;;;;;;;20.13;77.42;101645.41;20694949;28;19925;-58
2023/07/13 13:02:38;;;;;;;;;;;;;;;20.24;76.30;101640.44;20710814;28;20557;-58
2023/07/13 13:12:59;;;;;;;;;;;;;;;20.31;75.90;101652.28;20691083;28;19931;-58
2023/07/13 13:23:22;;;;;;;;;;;;;;;20.14;78.04;101635.75;20694503;28;19922;-58
2023/07/13 13:33:45;;;;;;;;;;;;;;;20.24;78.09;101632.53;20703769;28;19921;-58
2023/07/13 13:44:09;;;;;;;;;;;;;;;20.55;77.34;101628.97;20697510;28;19966;-58
2023/07/13 13:54:30;;;;;;;;;;;;;;;20.83;76.27;101635.16;20700443;28;20318;-58
2023/07/13 14:04:57;;;;;;;;;;;;;;;21.01;76.38;101635.88;20701430;28;19932;-58
2023/07/13 14:15:26;;;;;;;;;;;;;;;20.80;76.60;101634.50;20722264;28;20022;-60
2023/07/13 14:25:48;;;;;;;;;;;;;;;19.03;86.46;101683.78;20706859;28;21408;-59
2023/07/13 14:36:13;;;;;;;;;;;;;;;18.20;94.98;101684.47;20691537;28;19957;-60
2023/07/13 14:46:35;;;;;;;;;;;;;;;17.99;100.00;101681.06;20719705;28;19925;-59
2023/07/13 14:56:56;;;;;;;;;;;;;;;18.15;100.00;101689.03;20702694;28;19944;-59
2023/07/13 15:07:20;;;;;;;;;;;;;;;18.11;100.00;101682.28;20692531;28;20311;-59
2023/07/13 15:17:44;;;;;;;;;;;;;;;17.85;100.00;101698.34;20701640;28;19930;-59
2023/07/13 15:28:05;;;;;;;;;;;;;;;17.74;100.00;101679.66;20703835;28;19930;-59
2023/07/13 15:38:31;;;;;;;;;;;;;;;17.77;100.00;101700.47;20684162;28;19925;-59
2023/07/13 15:48:56;;;;;;;;;;;;;;;17.95;100.00;101684.75;20697177;28;19921;-59
2023/07/13 15:59:18;;;;;;;;;;;;;;;18.06;100.00;101686.84;20677448;28;19928;-59
2023/07/13 16:09:40;;;;;;;;;;;;;;;18.22;100.00;101682.59;20687292;28;19925;-59
2023/07/13 16:20:03;;;;;;;;;;;;;;;18.29;99.14;101678.78;20705564;28;19929;-59
2023/07/13 16:30:26;;;;;;;;;;;;;;;18.76;98.37;101689.56;20708755;28;19940;-60
2023/07/13 16:40:48;;;;;;;;;;;;;;;19.10;99.53;101688.72;20644145;28;19921;-59
2023/07/13 16:51:09;;;;;;;;;;;;;;;19.56;99.04;101693.25;20680189;28;20309;-59
2023/07/13 17:01:31;;;;;;;;;;;;;;;19.76;98.79;101693.06;20687703;28;19930;-59
2023/07/13 17:11:55;;;;;;;;;;;;;;;20.21;95.17;101697.59;20693343;28;19953;-60
2023/07/13 17:22:17;;;;;;;;;;;;;;;20.32;94.64;101701.31;20654112;28;19932;-59
2023/07/13 17:32:40;;;;;;;;;;;;;;;20.08;97.40;101696.53;20685576;28;19956;-59
2023/07/13 17:43:01;;;;;;;;;;;;;;;20.11;96.66;101710.34;20707592;28;19965;-59
2023/07/13 17:53:22;;;;;;;;;;;;;;;19.77;99.29;101710.50;20691666;28;19940;-59
2023/07/13 18:03:45;;;;;;;;;;;;;;;19.48;100.00;101721.72;20666924;28;19935;-59
2023/07/13 18:14:06;;;;;;;;;;;;;;;19.39;100.00;101716.97;20737532;28;19925;-59
2023/07/13 18:24:30;;;;;;;;;;;;;;;19.32;100.00;101723.47;20695742;28;20008;-60
2023/07/13 18:34:52;;;;;;;;;;;;;;;19.18;100.00;101720.63;20703191;28;19965;-59
2023/07/13 18:45:16;;;;;;;;;;;;;;;19.03;100.00;101731.00;20699809;28;19933;-60
2023/07/13 18:55:39;;;;;;;;;;;;;;;18.89;100.00;101725.59;20720181;28;19929;-59
2023/07/13 19:06:03;;;;;;;;;;;;;;;18.92;100.00;101754.31;20672547;28;19957;-59
2023/07/13 19:16:26;;;;;;;;;;;;;;;18.81;100.00;101740.88;20683875;28;21162;-59
2023/07/13 19:26:52;;;;;;;;;;;;;;;18.69;100.00;101757.22;20684247;28;19929;-60
2023/07/13 19:37:23;;;;;;;;;;;;;;;18.64;100.00;101759.19;20669306;28;19929;-59
2023/07/13 19:47:46;;;;;;;;;;;;;;;18.57;100.00;101778.75;20676850;28;19983;-59
2023/07/13 19:58:09;;;;;;;;;;;;;;;18.47;100.00;101782.75;20682187;28;19929;-59
2023/07/13 20:08:31;;;;;;;;;;;;;;;18.44;100.00;101809.09;20681762;28;19937;-59
2023/07/13 20:18:52;;;;;;;;;;;;;;;18.39;100.00;101811.06;20678573;28;19928;-59
2023/07/13 20:29:14;;;;;;;;;;;;;;;18.37;100.00;101823.38;20708126;28;20379;-59
2023/07/13 20:39:36;;;;;;;;;;;;;;;18.35;100.00;101822.59;20684933;28;20356;-59
2023/07/13 20:49:57;;;;;;;;;;;;;;;18.24;100.00;101824.88;20690424;28;19925;-60
2023/07/13 21:00:21;;;;;;;;;;;;;;;18.23;100.00;101824.94;20695435;28;19925;-59
2023/07/13 21:10:44;;;;;;;;;;;;;;;18.10;100.00;101819.41;20710554;28;19925;-59
2023/07/13 21:21:08;;;;;;;;;;;;;;;17.90;100.00;101830.78;20693821;28;19933;-59
2023/07/13 21:31:33;;;;;;;;;;;;;;;17.81;100.00;101838.19;20709717;28;20387;-59
2023/07/13 21:41:54;;;;;;;;;;;;;;;17.74;100.00;101847.22;20702571;28;19929;-60
2023/07/13 21:52:16;;;;;;;;;;;;;;;17.63;100.00;101849.47;20736351;28;20550;-59
2023/07/13 22:02:38;;;;;;;;;;;;;;;17.56;100.00;101853.25;20723598;28;20066;-59
2023/07/13 22:13:00;;;;;;;;;;;;;;;17.62;100.00;101868.69;20700179;28;19983;-60
2023/07/13 22:23:25;;;;;;;;;;;;;;;17.61;100.00;101867.00;20723786;28;20706;-59
2023/07/13 22:33:47;;;;;;;;;;;;;;;17.56;100.00;101853.25;20711880;28;19929;-59
2023/07/13 22:44:10;;;;;;;;;;;;;;;17.52;100.00;101846.44;20691508;28;19932;-59
2023/07/13 22:54:31;;;;;;;;;;;;;;;17.38;100.00;101848.78;20714695;28;19941;-59
2023/07/13 23:04:53;;;;;;;;;;;;;;;17.34;100.00;101868.94;20691683;28;19925;-59
2023/07/13 23:15:18;;;;;;;;;;;;;;;17.32;100.00;101869.94;20720605;28;20019;-59
2023/07/13 23:25:40;;;;;;;;;;;;;;;17.27;100.00;101861.44;20690396;28;20093;-59
2023/07/13 23:36:02;;;;;;;;;;;;;;;17.18;100.00;101851.34;20689669;28;19921;-59
2023/07/13 23:46:26;;;;;;;;;;;;;;;17.06;100.00;101843.09;20703141;28;20024;-60
2023/07/13 23:56:48;;;;;;;;;;;;;;;17.03;100.00;101855.44;20715743;28;19932;-59
